Time;durP1;ratioP1;P1;durP2;ratioP2;P2;SDS_P1;SDS_P2;PMS_P1;PMS_P2;Temp;Humidity;BMP_temperature;BMP_pressure;BME280_temperature;BME280_humidity;BME280_pressure;Samples;Min_cycle;Max_cycle;Signal;HPM_P1;HPM_P2
2022/08/28 00:03:58;;;;;;;2.20;0.80;;;18.40;99.90;;;;;;10444901;28;22832;-79
2022/08/28 00:08:59;;;;;;;2.08;0.80;;;18.40;99.90;;;;;;10505938;28;20052;-79
2022/08/28 00:14:02;;;;;;;2.42;0.95;;;18.40;99.90;;;;;;10492789;28;20811;-79
2022/08/28 00:19:05;;;;;;;2.90;0.98;;;18.30;99.90;;;;;;10503269;28;20066;-80
2022/08/28 00:24:07;;;;;;;4.05;1.00;;;18.20;99.90;;;;;;10471571;28;20044;-79
2022/08/28 00:29:09;;;;;;;2.78;1.40;;;18.20;99.90;;;;;;10494404;28;20044;-78
2022/08/28 00:34:14;;;;;;;1.90;0.70;;;18.30;99.90;;;;;;10456502;28;20052;-79
2022/08/28 00:39:16;;;;;;;3.50;1.15;;;18.40;99.90;;;;;;10481623;28;20139;-79
2022/08/28 00:44:23;;;;;;;4.53;0.77;;;18.40;99.90;;;;;;10468893;28;20052;-80
2022/08/28 00:49:29;;;;;;;1.25;0.70;;;18.50;99.90;;;;;;10493921;28;20498;-79
2022/08/28 00:54:45;;;;;;;1.92;0.55;;;18.60;99.90;;;;;;10486091;28;20631;-80
2022/08/28 01:00:03;;;;;;;3.65;0.55;;;18.60;99.90;;;;;;10501738;28;20047;-79
2022/08/28 01:05:08;;;;;;;1.55;0.93;;;18.70;99.90;;;;;;10500841;28;20424;-80
2022/08/28 01:10:15;;;;;;;3.88;0.80;;;18.80;99.90;;;;;;10472737;28;20041;-79
2022/08/28 01:15:22;;;;;;;3.63;1.05;;;18.80;99.90;;;;;;10493278;28;20154;-78
2022/08/28 01:20:28;;;;;;;1.95;0.95;;;18.80;99.90;;;;;;10477068;28;20048;-77
2022/08/28 01:25:34;;;;;;;4.43;0.90;;;18.80;99.90;;;;;;10492767;28;20040;-78
2022/08/28 01:30:36;;;;;;;2.83;0.73;;;18.80;99.90;;;;;;10472829;28;20389;-79
2022/08/28 01:35:41;;;;;;;3.33;1.05;;;18.80;99.90;;;;;;10489121;28;20047;-78
2022/08/28 01:40:47;;;;;;;2.38;0.93;;;18.80;99.90;;;;;;10491877;28;20048;-78
2022/08/28 01:45:55;;;;;;;5.60;1.10;;;18.80;99.90;;;;;;10482026;28;20053;-78
2022/08/28 01:50:57;;;;;;;1.50;0.57;;;18.80;99.90;;;;;;10472439;28;20712;-77
2022/08/28 01:56:03;;;;;;;3.85;1.08;;;18.70;99.90;;;;;;10477105;28;20059;-78
2022/08/28 02:01:11;;;;;;;1.98;0.77;;;18.70;99.90;;;;;;10482829;28;20064;-79
2022/08/28 02:06:14;;;;;;;1.65;0.80;;;18.80;99.90;;;;;;10482464;28;20044;-79
2022/08/28 02:11:16;;;;;;;2.75;0.90;;;18.80;99.90;;;;;;10475109;28;20059;-80
2022/08/28 02:16:18;;;;;;;2.47;0.80;;;18.70;99.90;;;;;;10479548;28;20052;-79
2022/08/28 02:21:20;;;;;;;4.50;0.93;;;18.60;99.90;;;;;;10458289;28;20055;-78
2022/08/28 02:26:23;;;;;;;3.70;0.88;;;18.60;99.90;;;;;;10490626;28;20044;-79
2022/08/28 02:31:26;;;;;;;4.10;1.00;;;18.60;99.90;;;;;;10495093;28;20051;-79
2022/08/28 02:36:28;;;;;;;6.13;1.08;;;18.50;99.90;;;;;;10492148;28;20045;-80
2022/08/28 02:41:30;;;;;;;4.45;0.90;;;18.40;99.90;;;;;;10498043;28;20055;-80
2022/08/28 02:46:32;;;;;;;2.60;0.82;;;18.30;99.90;;;;;;10460240;28;20422;-79
2022/08/28 02:51:34;;;;;;;4.30;1.05;;;18.30;99.90;;;;;;10469795;28;20048;-79
2022/08/28 02:56:36;;;;;;;2.97;1.13;;;18.20;99.90;;;;;;10494002;28;20044;-79
2022/08/28 03:01:38;;;;;;;2.90;0.90;;;18.20;99.90;;;;;;10484160;28;20571;-79
2022/08/28 03:06:40;;;;;;;1.90;0.95;;;18.20;99.90;;;;;;10469344;28;20047;-80
2022/08/28 03:11:42;;;;;;;4.55;1.00;;;18.30;99.90;;;;;;10486604;28;20483;-79
2022/08/28 03:16:44;;;;;;;2.25;0.82;;;18.30;99.90;;;;;;10463481;28;20051;-80
2022/08/28 03:21:46;;;;;;;1.30;0.60;;;18.40;99.90;;;;;;10466402;28;20047;-79
2022/08/28 03:26:48;;;;;;;3.65;0.70;;;18.30;99.90;;;;;;10481787;28;20055;-79
2022/08/28 03:31:50;;;;;;;5.15;0.73;;;18.40;99.90;;;;;;10484540;28;20068;-78
2022/08/28 03:36:52;;;;;;;3.80;1.00;;;18.50;99.90;;;;;;10486556;28;20132;-79
2022/08/28 03:41:54;;;;;;;4.28;0.70;;;18.50;99.90;;;;;;10472204;28;20409;-78
2022/08/28 03:46:55;;;;;;;3.38;0.60;;;18.60;99.90;;;;;;10488558;28;20053;-79
2022/08/28 03:51:58;;;;;;;2.65;0.82;;;18.60;99.90;;;;;;10480576;28;20036;-79
2022/08/28 03:57:00;;;;;;;1.63;0.80;;;18.60;99.90;;;;;;10480722;28;20040;-79
2022/08/28 04:02:01;;;;;;;2.95;0.52;;;18.60;99.90;;;;;;10499139;28;20592;-79
2022/08/28 04:07:03;;;;;;;7.47;0.60;;;18.60;99.90;;;;;;10493680;28;20059;-81
2022/08/28 04:12:07;;;;;;;5.82;0.73;;;18.70;99.90;;;;;;10440992;28;20045;-80
2022/08/28 04:17:08;;;;;;;5.15;0.95;;;18.70;99.90;;;;;;10450963;28;20040;-79
2022/08/28 04:22:10;;;;;;;1.63;0.45;;;18.70;99.90;;;;;;10452315;28;20110;-79
2022/08/28 04:27:13;;;;;;;1.75;0.45;;;18.60;99.90;;;;;;10459282;28;20048;-80
2022/08/28 04:32:15;;;;;;;2.67;0.40;;;18.60;99.90;;;;;;10466250;28;20067;-78
2022/08/28 04:37:18;;;;;;;3.67;0.60;;;18.60;99.90;;;;;;10441753;28;20431;-79
2022/08/28 04:42:23;;;;;;;4.13;0.88;;;18.60;99.90;;;;;;10451033;28;20118;-79
2022/08/28 04:47:26;;;;;;;4.65;0.68;;;18.60;99.90;;;;;;10457260;28;20139;-79
2022/08/28 04:52:28;;;;;;;7.53;0.60;;;18.60;99.90;;;;;;10436154;28;20132;-79
2022/08/28 04:57:30;;;;;;;0.68;0.50;;;18.60;99.90;;;;;;10456800;28;20045;-80
2022/08/28 05:02:37;;;;;;;2.25;0.45;;;18.50;99.90;;;;;;10452023;28;20119;-79
2022/08/28 05:07:39;;;;;;;7.05;0.50;;;18.50;99.90;;;;;;10454924;28;20056;-80
2022/08/28 05:12:45;;;;;;;3.27;0.50;;;18.60;99.90;;;;;;10494860;28;20147;-79
2022/08/28 05:17:47;;;;;;;5.47;1.02;;;18.50;99.90;;;;;;10490104;28;20279;-79
2022/08/28 05:22:51;;;;;;;5.45;0.40;;;18.50;99.90;;;;;;10486916;28;20098;-79
2022/08/28 05:27:53;;;;;;;5.88;0.40;;;18.50;99.90;;;;;;10485010;28;20048;-79
2022/08/28 05:32:55;;;;;;;1.27;0.40;;;18.50;99.90;;;;;;10492174;28;20045;-79
2022/08/28 05:37:57;;;;;;;2.83;0.50;;;18.40;99.90;;;;;;10495234;28;20051;-79
2022/08/28 05:43:00;;;;;;;1.63;0.80;;;18.40;99.90;;;;;;10483695;28;20127;-79
2022/08/28 05:48:02;;;;;;;3.33;0.98;;;18.40;99.90;;;;;;10493074;28;20070;-78
2022/08/28 05:53:04;;;;;;;3.38;0.47;;;18.30;99.90;;;;;;10484276;28;20052;-78
2022/08/28 06:03:26;;;;;;;6.50;0.50;;;18.30;99.90;;;;;;10468792;28;20717;-79
2022/08/28 06:08:30;;;;;;;3.47;0.60;;;18.30;99.90;;;;;;10467200;28;20052;-79
2022/08/28 06:13:33;;;;;;;4.00;0.60;;;18.30;99.90;;;;;;10476069;28;20052;-79
2022/08/28 06:18:34;;;;;;;3.47;0.60;;;18.50;99.90;;;;;;10472612;28;20064;-78
2022/08/28 06:23:36;;;;;;;2.20;0.30;;;18.60;99.90;;;;;;10476199;28;20063;-79
2022/08/28 06:28:38;;;;;;;4.72;0.30;;;18.70;99.90;;;;;;10476884;28;20055;-79
2022/08/28 06:33:41;;;;;;;2.50;0.30;;;18.70;99.90;;;;;;10485967;28;20409;-79
2022/08/28 06:38:45;;;;;;;4.55;0.52;;;18.80;99.90;;;;;;10491328;28;20352;-78
2022/08/28 06:43:47;;;;;;;3.50;0.50;;;18.90;99.90;;;;;;10482108;28;20044;-85
2022/08/28 06:48:49;;;;;;;4.45;0.50;;;19.00;99.90;;;;;;10475959;28;20048;-83
2022/08/28 06:53:51;;;;;;;2.67;0.40;;;19.00;99.90;;;;;;10495324;28;20070;-83
2022/08/28 06:58:55;;;;;;;3.42;0.55;;;19.00;99.90;;;;;;10488522;28;20056;-83
2022/08/28 07:04:04;;;;;;;3.75;0.40;;;19.10;99.90;;;;;;10492158;28;20091;-83
2022/08/28 07:09:09;;;;;;;5.65;0.88;;;19.20;99.90;;;;;;10473079;28;20042;-83
2022/08/28 07:14:12;;;;;;;5.47;0.83;;;19.20;99.90;;;;;;10470600;28;20043;-83
2022/08/28 07:19:14;;;;;;;2.95;0.40;;;19.20;99.90;;;;;;10497040;28;20128;-82
2022/08/28 07:24:16;;;;;;;3.38;0.40;;;19.40;99.90;;;;;;10470122;28;20056;-83
2022/08/28 07:29:18;;;;;;;4.50;0.40;;;19.50;99.90;;;;;;10495222;28;20056;-81
2022/08/28 07:34:22;;;;;;;3.40;0.40;;;19.50;99.90;;;;;;10496850;28;20048;-77
2022/08/28 07:39:28;;;;;;;2.42;0.40;;;19.50;99.90;;;;;;10500477;28;20066;-79
2022/08/28 07:44:48;;;;;;;4.05;0.52;;;19.50;99.90;;;;;;10483025;28;20048;-79
2022/08/28 07:49:52;;;;;;;4.75;0.40;;;19.60;99.90;;;;;;10495597;28;20517;-77
2022/08/28 07:54:55;;;;;;;1.45;0.40;;;19.70;99.90;;;;;;10497470;28;20135;-78
2022/08/28 08:00:04;;;;;;;8.48;0.50;;;19.70;99.90;;;;;;10475425;28;20052;-88
2022/08/28 08:05:08;;;;;;;2.38;0.40;;;19.90;99.90;;;;;;10467293;28;20048;-89
2022/08/28 08:10:13;;;;;;;7.30;0.75;;;20.00;99.90;;;;;;10479802;28;20050;-89
2022/08/28 08:15:20;;;;;;;2.30;0.80;;;20.20;99.90;;;;;;10481366;28;20044;-90
2022/08/28 08:20:23;;;;;;;3.20;0.40;;;20.40;99.90;;;;;;10447168;28;20605;-90
2022/08/28 08:25:25;;;;;;;6.90;0.65;;;20.60;99.90;;;;;;10472365;28;20071;-86
2022/08/28 08:30:26;;;;;;;2.20;0.40;;;20.70;99.90;;;;;;10484870;28;26353;-87
2022/08/28 08:35:29;;;;;;;1.23;0.43;;;20.90;99.90;;;;;;10493976;28;20078;-88
2022/08/28 08:40:32;;;;;;;7.47;0.60;;;21.00;99.90;;;;;;10484594;28;20072;-87
2022/08/28 08:45:35;;;;;;;3.13;0.43;;;21.10;99.90;;;;;;10504294;28;20039;-88
2022/08/28 08:50:40;;;;;;;3.50;0.40;;;21.10;99.90;;;;;;10503412;28;20128;-80
2022/08/28 08:55:51;;;;;;;6.55;0.52;;;21.30;99.90;;;;;;10494104;28;20052;-83
2022/08/28 09:01:14;;;;;;;6.85;0.40;;;21.50;99.90;;;;;;10491729;28;20094;-80
2022/08/28 09:06:51;;;;;;;5.20;0.70;;;21.60;99.90;;;;;;10482437;28;20486;-83
2022/08/28 09:11:57;;;;;;;2.78;0.40;;;21.80;99.90;;;;;;10495359;28;20051;-83
2022/08/28 09:17:00;;;;;;;;;;;22.00;99.90;;;;;;10475445;28;20115;-81
2022/08/28 09:22:02;;;;;;;1.73;0.47;;;22.10;99.90;;;;;;10498998;28;19978;-81
2022/08/28 09:27:27;;;;;;;5.30;0.70;;;22.20;99.90;;;;;;10470159;28;20052;-83
2022/08/28 09:32:29;;;;;;;3.65;0.40;;;22.40;99.90;;;;;;10500883;28;20104;-84
2022/08/28 09:37:32;;;;;;;2.45;0.50;;;22.30;99.90;;;;;;10466310;28;20093;-83
2022/08/28 09:43:35;;;;;;;5.28;0.70;;;22.40;99.90;;;;;;10472785;28;20074;-83
2022/08/28 09:48:52;;;;;;;4.40;0.32;;;22.50;99.90;;;;;;10439248;28;20048;-83
2022/08/28 09:54:40;;;;;;;1.10;0.40;;;22.70;99.90;;;;;;10497308;28;20048;-83
2022/08/28 09:59:42;;;;;;;23.70;1.20;;;22.80;99.90;;;;;;10491685;28;20147;-83
2022/08/28 10:05:04;;;;;;;4.93;0.40;;;22.90;99.90;;;;;;10492600;28;20044;-90
2022/08/28 10:10:27;;;;;;;3.70;0.40;;;23.20;99.90;;;;;;10498205;28;20047;-85
2022/08/28 10:15:51;;;;;;;2.80;0.63;;;23.30;99.70;;;;;;10467100;28;20113;-87
2022/08/28 10:21:14;;;;;;;4.97;0.52;;;23.50;99.50;;;;;;10396810;28;20072;-90
2022/08/28 10:26:55;;;;;;;2.22;0.35;;;23.60;99.40;;;;;;10339812;28;20120;-91
2022/08/28 10:32:13;;;;;;;3.10;0.40;;;23.80;98.90;;;;;;10430009;28;20565;-89
2022/08/28 10:37:44;;;;;;;3.22;0.30;;;24.00;98.20;;;;;;10440744;28;20082;-88
2022/08/28 10:42:52;;;;;;;2.25;0.40;;;24.20;97.60;;;;;;10488235;28;20051;-86
2022/08/28 10:48:06;;;;;;;1.25;0.30;;;24.50;96.90;;;;;;10468049;28;20056;-91
2022/08/28 10:53:18;;;;;;;2.47;0.47;;;24.60;96.60;;;;;;10202562;28;20136;-90
2022/08/28 10:58:48;;;;;;;;;;;24.80;95.80;;;;;;10144252;28;20751;-92
2022/08/28 11:04:24;;;;;;;4.82;0.50;;;24.90;95.70;;;;;;10098392;28;19926;-90
2022/08/28 11:09:58;;;;;;;5.10;0.40;;;25.00;96.00;;;;;;10233776;28;20052;-91
2022/08/28 11:15:38;;;;;;;3.42;0.40;;;25.10;95.00;;;;;;10208408;28;20045;-91
2022/08/28 11:21:08;;;;;;;4.70;0.40;;;25.10;95.10;;;;;;10291013;28;20092;-89
2022/08/28 11:26:21;;;;;;;1.05;0.30;;;24.80;94.40;;;;;;10294705;28;20048;-89
2022/08/28 11:31:26;;;;;;;6.35;0.60;;;25.00;94.90;;;;;;10428619;28;20098;-86
2022/08/28 11:36:31;;;;;;;2.42;0.30;;;25.20;94.20;;;;;;10418847;28;20130;-88
2022/08/28 11:41:57;;;;;;;6.72;1.00;;;25.40;92.80;;;;;;10429833;28;20172;-87
2022/08/28 11:47:19;;;;;;;;;;;25.90;92.40;;;;;;10378517;28;21707;-85
2022/08/28 11:52:48;;;;;;;5.13;0.32;;;26.50;92.20;;;;;;10421538;28;19969;-86
2022/08/28 11:58:23;;;;;;;3.88;0.50;;;27.00;91.50;;;;;;10431032;28;20053;-88
2022/08/28 12:03:41;;;;;;;4.47;0.77;;;27.60;86.60;;;;;;10385979;28;20071;-84
2022/08/28 12:08:43;;;;;;;3.50;0.70;;;27.80;86.60;;;;;;10456821;28;20093;-85
2022/08/28 12:13:48;;;;;;;4.85;0.70;;;28.10;83.10;;;;;;10469448;28;20049;-87
2022/08/28 12:18:49;;;;;;;2.97;0.50;;;28.20;84.20;;;;;;10475233;28;20689;-87
2022/08/28 12:24:10;;;;;;;2.03;0.57;;;28.10;76.90;;;;;;10475118;28;20053;-87
2022/08/28 12:29:24;;;;;;;5.75;0.80;;;28.00;75.80;;;;;;10454426;28;20097;-87
2022/08/28 12:34:58;;;;;;;3.38;0.70;;;27.90;76.50;;;;;;10486271;28;20104;-86
2022/08/28 12:40:14;;;;;;;7.78;1.25;;;27.70;73.00;;;;;;10479214;28;20098;-84
2022/08/28 12:45:38;;;;;;;6.20;0.77;;;27.70;74.00;;;;;;10493695;28;20057;-86
2022/08/28 12:50:41;;;;;;;3.25;0.63;;;27.50;75.50;;;;;;10485580;28;20548;-88
2022/08/28 12:55:45;;;;;;;2.47;0.65;;;27.50;76.00;;;;;;10488922;28;20506;-88
2022/08/28 13:00:52;;;;;;;7.15;0.70;;;27.60;73.90;;;;;;10386723;28;20088;-88
2022/08/28 13:06:02;;;;;;;3.70;1.00;;;27.80;72.40;;;;;;10443568;28;20052;-91
2022/08/28 13:11:19;;;;;;;2.88;0.60;;;27.90;72.90;;;;;;10344587;28;20063;-91
2022/08/28 13:16:55;;;;;;;2.03;0.60;;;28.10;72.30;;;;;;10356079;28;20052;-91
2022/08/28 13:22:07;;;;;;;5.40;0.70;;;28.30;71.40;;;;;;10427390;28;20133;-90
2022/08/28 13:27:18;;;;;;;4.03;0.88;;;28.20;71.60;;;;;;10467354;28;20039;-91
2022/08/28 13:32:20;;;;;;;2.65;0.52;;;28.10;70.30;;;;;;10480113;28;20040;-91
2022/08/28 13:37:47;;;;;;;2.53;0.60;;;28.00;71.50;;;;;;10401706;28;20055;-91
2022/08/28 13:43:01;;;;;;;2.97;0.60;;;28.10;70.80;;;;;;10304793;28;20045;-91
2022/08/28 13:48:04;;;;;;;4.57;0.65;;;28.00;69.70;;;;;;10449225;28;20051;-91
2022/08/28 13:53:07;;;;;;;4.22;0.43;;;28.00;72.00;;;;;;10447216;28;20078;-92
2022/08/28 13:58:15;;;;;;;2.97;0.52;;;28.00;68.30;;;;;;10391591;28;20387;-91
2022/08/28 14:03:34;;;;;;;5.30;0.70;;;28.10;70.00;;;;;;10478371;28;20063;-91
2022/08/28 14:08:37;;;;;;;3.05;0.60;;;28.10;71.20;;;;;;10494546;28;20056;-91
2022/08/28 14:13:41;;;;;;;4.68;1.13;;;27.90;67.30;;;;;;10513938;28;20047;-90
2022/08/28 14:18:58;;;;;;;2.58;0.80;;;28.10;68.00;;;;;;10483474;28;20049;-91
2022/08/28 14:24:01;;;;;;;4.78;0.90;;;28.20;68.00;;;;;;10494957;28;20056;-91
2022/08/28 14:29:06;;;;;;;2.60;0.50;;;28.30;68.50;;;;;;10509885;28;20441;-91
2022/08/28 14:34:10;;;;;;;3.42;0.80;;;28.30;67.70;;;;;;10458273;28;20161;-90
2022/08/28 14:39:15;;;;;;;1.73;0.60;;;28.50;67.80;;;;;;10482020;28;20074;-91
2022/08/28 14:44:25;;;;;;;2.05;0.60;;;28.20;68.80;;;;;;10465396;28;20066;-90
2022/08/28 14:49:27;;;;;;;3.97;0.80;;;28.00;66.70;;;;;;10493443;28;20044;-90
2022/08/28 14:54:30;;;;;;;5.60;0.68;;;28.20;70.00;;;;;;10469609;28;20054;-91
2022/08/28 14:59:32;;;;;;;2.78;0.60;;;28.30;67.80;;;;;;10489379;28;20050;-90
2022/08/28 15:04:36;;;;;;;3.20;0.90;;;28.50;67.80;;;;;;10484256;28;20048;-90
2022/08/28 15:09:41;;;;;;;2.05;0.52;;;28.50;67.30;;;;;;10489681;28;20115;-91
2022/08/28 15:14:44;;;;;;;3.28;0.80;;;28.40;69.40;;;;;;10491724;28;20043;-91
2022/08/28 15:19:59;;;;;;;3.33;0.75;;;28.40;66.70;;;;;;10472271;28;20063;-91
2022/08/28 15:25:04;;;;;;;3.05;1.10;;;28.10;68.40;;;;;;10465802;28;20050;-91
2022/08/28 15:30:07;;;;;;;5.93;0.70;;;27.90;67.80;;;;;;10479161;28;20041;-92
2022/08/28 15:35:10;;;;;;;3.60;0.82;;;27.70;67.70;;;;;;10496019;28;20040;-91
2022/08/28 15:45:36;;;;;;;2.85;0.60;;;27.30;68.40;;;;;;10490218;28;20075;-91
2022/08/28 15:50:39;;;;;;;;;;;27.30;69.50;;;;;;10480139;28;20109;-91
2022/08/28 15:55:42;;;;;;;6.68;1.02;;;27.10;71.10;;;;;;10471251;28;20000;-91
2022/08/28 16:00:44;;;;;;;3.33;0.60;;;27.00;70.70;;;;;;10488622;28;20074;-91
2022/08/28 16:05:46;;;;;;;2.45;0.70;;;26.90;70.10;;;;;;10429299;28;20135;-90
2022/08/28 16:10:50;;;;;;;3.88;1.33;;;26.80;70.80;;;;;;10449883;28;20083;-90
2022/08/28 16:15:55;;;;;;;2.47;0.60;;;26.60;68.80;;;;;;10470463;28;20056;-90
2022/08/28 16:20:58;;;;;;;5.20;0.90;;;26.60;69.60;;;;;;10514432;28;21935;-90
2022/08/28 16:26:07;;;;;;;4.38;1.65;;;26.60;70.00;;;;;;10318185;28;20048;-90
2022/08/28 16:31:11;;;;;;;2.85;0.70;;;26.60;69.40;;;;;;10465890;28;20044;-90
2022/08/28 16:36:24;;;;;;;3.10;0.82;;;26.50;71.30;;;;;;10485637;28;20074;-90
2022/08/28 16:41:26;;;;;;;2.85;0.70;;;26.40;71.40;;;;;;10496321;28;20048;-89
2022/08/28 16:46:31;;;;;;;5.63;0.95;;;26.40;70.50;;;;;;10513125;28;20089;-90
2022/08/28 16:51:38;;;;;;;1.60;0.40;;;26.30;70.80;;;;;;10504244;28;20127;-91
2022/08/28 16:56:40;;;;;;;0.95;0.50;;;26.00;71.40;;;;;;10490426;28;20070;-90
2022/08/28 17:01:42;;;;;;;1.42;0.40;;;25.90;70.70;;;;;;10462341;28;20044;-89
2022/08/28 17:06:45;;;;;;;2.00;0.40;;;25.80;70.30;;;;;;10496259;28;20105;-90
2022/08/28 17:11:47;;;;;;;2.35;0.40;;;25.60;71.00;;;;;;10485212;28;20048;-90
2022/08/28 17:16:52;;;;;;;2.28;0.30;;;25.50;72.50;;;;;;10484978;28;20052;-90
2022/08/28 17:27:16;;;;;;;3.22;0.32;;;25.30;71.10;;;;;;10489446;28;20118;-91
2022/08/28 17:32:24;;;;;;;3.83;0.50;;;25.20;70.90;;;;;;10480008;28;20028;-91
2022/08/28 17:37:26;;;;;;;2.88;0.40;;;25.10;71.40;;;;;;10458145;28;20081;-91
2022/08/28 17:42:28;;;;;;;2.47;0.40;;;25.00;71.50;;;;;;10494873;28;20044;-90
2022/08/28 17:47:31;;;;;;;2.33;0.50;;;24.80;72.00;;;;;;10491063;28;20048;-89
2022/08/28 17:52:33;;;;;;;2.00;0.40;;;24.60;73.30;;;;;;10473929;28;20101;-89
2022/08/28 17:57:35;;;;;;;2.60;0.30;;;24.40;73.40;;;;;;10470479;28;20075;-87
2022/08/28 18:02:38;;;;;;;2.88;0.60;;;24.20;74.00;;;;;;10506624;28;20044;-86
2022/08/28 18:07:40;;;;;;;3.00;0.40;;;24.00;75.10;;;;;;10476493;28;20044;-85
2022/08/28 18:12:42;;;;;;;4.30;0.35;;;23.80;75.50;;;;;;10501473;28;20058;-85
2022/08/28 18:17:49;;;;;;;3.75;0.45;;;23.60;76.20;;;;;;10519184;28;20059;-84
2022/08/28 18:22:51;;;;;;;5.30;0.38;;;23.40;76.30;;;;;;10482237;28;20067;-84
2022/08/28 18:27:53;;;;;;;4.63;0.73;;;23.20;77.10;;;;;;10466857;28;20067;-85
2022/08/28 18:32:56;;;;;;;0.65;0.25;;;23.00;77.60;;;;;;10514253;28;20042;-85
2022/08/28 18:38:00;;;;;;;2.58;0.47;;;22.80;77.90;;;;;;10504838;28;20052;-87
2022/08/28 18:43:02;;;;;;;3.25;0.35;;;22.60;78.20;;;;;;10481452;28;20597;-88
2022/08/28 18:48:06;;;;;;;0.90;0.20;;;22.50;78.70;;;;;;10474928;28;20041;-87
2022/08/28 18:53:08;;;;;;;1.08;0.30;;;22.30;79.10;;;;;;10516198;28;20076;-88
2022/08/28 18:58:11;;;;;;;2.67;0.30;;;22.10;79.80;;;;;;10484745;28;20060;-88
2022/08/28 19:03:16;;;;;;;3.35;0.40;;;22.00;80.20;;;;;;10494970;28;20040;-87
2022/08/28 19:08:18;;;;;;;6.38;0.50;;;21.90;80.40;;;;;;10501557;28;20048;-85
2022/08/28 19:13:20;;;;;;;2.10;0.28;;;21.70;81.00;;;;;;10498748;28;20047;-84
2022/08/28 19:18:22;;;;;;;2.05;0.30;;;21.50;80.80;;;;;;10482921;28;20036;-83
2022/08/28 19:23:24;;;;;;;3.88;0.30;;;21.40;81.50;;;;;;10494816;28;20037;-84
2022/08/28 19:28:27;;;;;;;1.48;0.35;;;21.20;81.80;;;;;;10472092;28;20059;-84
2022/08/28 19:33:29;;;;;;;1.35;0.40;;;21.10;82.30;;;;;;10482408;28;20056;-85
2022/08/28 19:38:31;;;;;;;3.72;0.45;;;21.00;82.70;;;;;;10482414;28;20055;-84
2022/08/28 19:43:34;;;;;;;3.08;0.30;;;20.80;83.40;;;;;;10493747;28;20032;-85
2022/08/28 19:48:44;;;;;;;3.80;0.30;;;20.70;83.90;;;;;;10477163;28;20048;-85
2022/08/28 19:53:50;;;;;;;1.50;0.30;;;20.60;84.40;;;;;;10493179;28;20045;-85
2022/08/28 19:59:01;;;;;;;5.70;0.30;;;20.40;84.60;;;;;;10502519;28;20059;-84
2022/08/28 20:04:05;;;;;;;3.40;0.30;;;20.30;84.90;;;;;;10488130;28;20044;-84
2022/08/28 20:09:07;;;;;;;2.15;0.65;;;20.30;85.20;;;;;;10489557;28;20051;-85
2022/08/28 20:14:15;;;;;;;0.73;0.20;;;20.20;85.70;;;;;;10494986;28;20052;-83
2022/08/28 20:19:18;;;;;;;0.85;0.20;;;20.10;86.30;;;;;;10448696;28;20151;-85
2022/08/28 20:24:22;;;;;;;1.40;0.32;;;20.10;86.80;;;;;;10471406;28;20095;-85
2022/08/28 20:29:25;;;;;;;2.60;0.28;;;20.00;87.40;;;;;;10469965;28;20079;-84
2022/08/28 20:34:28;;;;;;;4.25;0.22;;;19.90;88.00;;;;;;10482437;28;20132;-84
2022/08/28 20:39:30;;;;;;;2.67;0.88;;;19.80;88.40;;;;;;10472223;28;20070;-85
2022/08/28 20:44:32;;;;;;;1.95;0.20;;;19.80;89.00;;;;;;10472006;28;20147;-85
2022/08/28 20:49:34;;;;;;;4.95;0.30;;;19.70;89.50;;;;;;10465214;28;20159;-84
2022/08/28 20:54:40;;;;;;;3.85;0.28;;;19.70;90.00;;;;;;10487787;28;20048;-83
2022/08/28 20:59:46;;;;;;;4.85;0.73;;;19.60;90.20;;;;;;10468803;28;20479;-84
2022/08/28 21:04:49;;;;;;;1.63;0.30;;;19.50;90.50;;;;;;10484108;28;20044;-84
2022/08/28 21:09:52;;;;;;;2.40;0.40;;;19.50;90.70;;;;;;10491628;28;20064;-84
2022/08/28 21:15:08;;;;;;;3.78;0.30;;;19.40;90.90;;;;;;10494560;28;20105;-82
2022/08/28 21:20:13;;;;;;;1.38;0.20;;;19.30;91.10;;;;;;10478960;28;20047;-84
2022/08/28 21:25:15;;;;;;;2.08;0.30;;;19.30;91.20;;;;;;10494437;28;20162;-83
2022/08/28 21:30:20;;;;;;;1.95;0.25;;;19.20;91.30;;;;;;10499189;28;20059;-83
2022/08/28 21:35:22;;;;;;;1.40;0.30;;;19.20;91.50;;;;;;10479534;28;20048;-83
2022/08/28 21:40:23;;;;;;;3.97;0.75;;;19.10;91.60;;;;;;10491494;28;20060;-82
2022/08/28 21:45:26;;;;;;;4.47;0.63;;;19.10;91.80;;;;;;10502901;28;20050;-82
2022/08/28 21:50:28;;;;;;;3.15;0.30;;;19.00;91.80;;;;;;10463824;28;20055;-82
2022/08/28 21:55:30;;;;;;;3.78;0.20;;;19.00;91.90;;;;;;10495368;28;20048;-82
2022/08/28 22:00:33;;;;;;;4.20;0.25;;;18.90;92.10;;;;;;10448817;28;20205;-82
2022/08/28 22:05:34;;;;;;;4.35;0.40;;;18.80;92.20;;;;;;10479481;28;20048;-81
2022/08/28 22:10:39;;;;;;;1.75;0.25;;;18.80;92.40;;;;;;10496677;28;20040;-82
2022/08/28 22:15:43;;;;;;;2.67;0.30;;;18.60;92.50;;;;;;10453320;28;20040;-82
2022/08/28 22:26:12;;;;;;;1.58;0.20;;;18.50;92.70;;;;;;10492407;28;20048;-82
2022/08/28 22:31:14;;;;;;;3.63;0.30;;;18.50;92.90;;;;;;10492902;28;20049;-82
2022/08/28 22:36:20;;;;;;;1.25;0.30;;;18.40;93.10;;;;;;10483469;28;20040;-82
2022/08/28 22:41:22;;;;;;;2.35;0.30;;;18.30;93.30;;;;;;10479309;28;20040;-81
2022/08/28 22:46:26;;;;;;;5.15;0.30;;;18.20;93.20;;;;;;10484905;28;20075;-82
2022/08/28 22:51:31;;;;;;;2.28;0.20;;;18.20;93.50;;;;;;10495071;28;20056;-82
2022/08/28 22:56:34;;;;;;;4.28;0.30;;;18.10;93.60;;;;;;10498221;28;20055;-81
2022/08/28 23:01:37;;;;;;;1.35;0.30;;;18.00;93.70;;;;;;10485151;28;20104;-81
2022/08/28 23:06:39;;;;;;;1.95;0.20;;;18.00;93.90;;;;;;10479950;28;20056;-82
2022/08/28 23:11:41;;;;;;;3.45;0.40;;;17.90;93.90;;;;;;10492565;28;20047;-81
2022/08/28 23:16:43;;;;;;;4.78;0.40;;;17.90;94.00;;;;;;10493697;28;20045;-82
2022/08/28 23:21:46;;;;;;;4.28;0.30;;;17.80;94.10;;;;;;10495592;28;20074;-82
2022/08/28 23:26:47;;;;;;;0.68;0.20;;;17.80;94.20;;;;;;10470136;28;20071;-81
2022/08/28 23:31:49;;;;;;;2.65;0.60;;;17.80;94.20;;;;;;10476030;28;20095;-82
2022/08/28 23:36:51;;;;;;;2.15;0.22;;;17.80;94.30;;;;;;10481482;28;20053;-81
2022/08/28 23:41:53;;;;;;;4.78;0.50;;;17.70;94.30;;;;;;10476599;28;20047;-81
2022/08/28 23:46:55;;;;;;;1.92;0.30;;;17.70;94.40;;;;;;10481611;28;20052;-81
2022/08/28 23:51:57;;;;;;;0.95;0.22;;;17.70;94.50;;;;;;10481219;28;20066;-81
2022/08/28 23:57:00;;;;;;;2.70;0.30;;;17.60;94.60;;;;;;10494443;28;20870;-83
